Aviation Digital Data Service (ADDS)

Output produced by METARs form (2319 UTC 20 January 2019)
found at http://www.aviationweather.gov/metar/data/
 
Forecast for: OJAQ (AQABA INTL AIRPO, JO)
Text: TAF OJAQ 202300Z 2100/2206 36012KT CAVOK
Forecast period: 0000 UTC 21 January 2019 to 0600 UTC 22 January 2019
Forecast type: FROM: standard forecast or significant change
Winds: from the N (360 degrees) at 14 MPH (12 knots; 6.2 m/s)
Visibility: 6 or more miles 10+ km)
Ceiling: unknown
Clouds: missing
Weather: NSW  (no significant weather)
Text: TEMPO 2102/2109 16008KT NSC
Forecast period: 0200 to 0900 UTC 21 January 2019
Forecast type: TEMPORARY: The following changes expected for less than half the time period
Winds: from the SSE (160 degrees) at 9 MPH (8 knots; 4.1 m/s)
Visibility: missing
Ceiling: unknown
Clouds: missing
Weather: no significant weather forecast for this period
Text: TEMPO 2101/2106 7000 -RA SCT080
Forecast period: 0100 to 0600 UTC 21 January 2019
Forecast type: TEMPORARY: The following changes expected for less than half the time period
Visibility: 4 miles (7 km)
Ceiling: at least 12,000 feet AGL
Clouds: scattered clouds at 8000 feet AGL
Weather: -RA  (light rain)